createdAt,value
2019-03-11T00:01:41.515Z,11.59
2019-03-11T00:04:14.567Z,11.67
2019-03-11T00:06:47.100Z,11.65
2019-03-11T00:09:19.143Z,11.61
2019-03-11T00:11:51.207Z,11.70
2019-03-11T00:14:23.185Z,11.66
2019-03-11T00:16:56.716Z,11.64
2019-03-11T00:19:28.763Z,12.04
2019-03-11T00:22:04.489Z,12.57
2019-03-11T00:24:36.875Z,12.44
2019-03-11T00:27:08.874Z,12.64
2019-03-11T00:29:40.983Z,12.64
2019-03-11T00:32:13.272Z,12.63
2019-03-11T00:34:45.309Z,12.60
2019-03-11T00:37:17.590Z,13.08
2019-03-11T00:39:49.626Z,12.81
2019-03-11T00:42:21.881Z,12.88
2019-03-11T00:44:54.262Z,12.82
2019-03-11T00:47:26.259Z,12.82
2019-03-11T00:49:58.388Z,12.30
2019-03-11T00:52:30.508Z,12.97
2019-03-11T00:55:03.237Z,12.60
2019-03-11T00:57:35.367Z,13.07
2019-03-11T01:00:13.003Z,13.18
2019-03-11T01:02:44.999Z,12.97
2019-03-11T01:05:17.029Z,13.22
2019-03-11T01:07:49.030Z,12.88
2019-03-11T01:10:22.285Z,13.43
2019-03-11T01:12:54.399Z,12.73
2019-03-11T01:15:26.599Z,13.06
2019-03-11T01:17:58.634Z,12.89
2019-03-11T01:20:30.649Z,13.24
2019-03-11T01:23:03.735Z,13.56
2019-03-11T01:25:35.763Z,13.76
2019-03-11T01:28:07.829Z,13.65
2019-03-11T01:30:39.821Z,13.42
2019-03-11T01:33:11.892Z,13.71
2019-03-11T01:35:45.524Z,13.76
2019-03-11T01:38:17.544Z,13.68
2019-03-11T01:40:49.522Z,13.41
2019-03-11T01:43:21.577Z,13.85
2019-03-11T01:45:53.580Z,13.52
2019-03-11T01:48:25.611Z,13.78
2019-03-11T01:50:57.676Z,13.50
2019-03-11T01:53:29.719Z,13.57
2019-03-11T01:56:02.560Z,13.61
2019-03-11T01:58:35.749Z,13.05
2019-03-11T02:01:07.971Z,13.23
2019-03-11T02:03:39.999Z,13.64
2019-03-11T02:06:12.007Z,13.74
2019-03-11T02:08:44.064Z,13.76
2019-03-11T02:11:19.823Z,13.44
2019-03-11T02:13:51.854Z,13.35
2019-03-11T02:16:23.876Z,13.72
2019-03-11T02:18:56.072Z,13.68
2019-03-11T02:21:28.085Z,13.33
2019-03-11T02:24:00.152Z,13.13
2019-03-11T02:26:32.594Z,13.33
2019-03-11T02:29:07.463Z,13.36
2019-03-11T02:31:40.557Z,13.71
2019-03-11T02:34:12.679Z,13.50
2019-03-11T02:36:44.813Z,13.47
2019-03-11T02:39:16.852Z,13.38
2019-03-11T02:41:48.878Z,13.22
2019-03-11T02:44:20.898Z,13.41
2019-03-11T02:46:52.931Z,13.33
2019-03-11T02:49:24.973Z,13.23
2019-03-11T02:51:56.948Z,13.24
2019-03-11T02:54:29.044Z,13.24
2019-03-11T02:57:02.572Z,13.10
2019-03-11T02:59:34.551Z,13.19
2019-03-11T03:02:24.289Z,12.36
2019-03-11T03:05:10.070Z,12.56
2019-03-11T03:07:42.209Z,12.48
2019-03-11T03:10:14.656Z,12.35
2019-03-11T03:12:46.689Z,12.47
2019-03-11T03:15:18.681Z,12.43
2019-03-11T03:17:50.707Z,12.53
2019-03-11T03:20:22.768Z,12.53
2019-03-11T03:22:54.859Z,12.54
2019-03-11T03:25:33.868Z,12.34
2019-03-11T03:28:01.101Z,12.43
2019-03-11T03:30:33.170Z,13.20
2019-03-11T03:33:05.187Z,12.41
2019-03-11T03:35:37.169Z,12.34
2019-03-11T03:38:09.302Z,12.27
2019-03-11T03:40:41.325Z,12.74
2019-03-11T03:43:13.318Z,12.70
2019-03-11T03:45:45.628Z,12.62
2019-03-11T03:48:17.663Z,12.50
2019-03-11T03:50:49.728Z,12.55
2019-03-11T03:53:21.751Z,12.55
2019-03-11T03:55:53.773Z,12.57
2019-03-11T03:58:25.832Z,12.81
2019-03-11T04:00:57.913Z,12.94
2019-03-11T04:03:29.889Z,12.64
2019-03-11T04:06:01.923Z,12.58
2019-03-11T04:08:34.430Z,12.81
2019-03-11T04:11:06.455Z,13.06
2019-03-11T04:13:38.549Z,12.96
2019-03-11T04:16:10.569Z,12.76
2019-03-11T04:18:56.818Z,12.86
2019-03-11T04:21:29.163Z,13.07
2019-03-11T04:24:01.538Z,12.71
2019-03-11T04:26:33.540Z,12.69
2019-03-11T04:29:05.689Z,12.89
2019-03-11T04:31:37.704Z,12.95
2019-03-11T04:34:09.879Z,12.76
2019-03-11T04:36:42.069Z,12.71
2019-03-11T04:39:14.092Z,12.76
2019-03-11T04:41:46.105Z,12.85
2019-03-11T04:44:18.128Z,12.73
2019-03-11T04:46:50.125Z,12.80
2019-03-11T04:49:22.164Z,12.64
2019-03-11T04:51:54.154Z,12.49
2019-03-11T04:54:26.180Z,12.27
2019-03-11T04:56:58.197Z,12.16
2019-03-11T04:59:30.233Z,12.23
2019-03-11T05:02:02.276Z,12.15
2019-03-11T05:04:34.254Z,12.17
2019-03-11T05:07:06.318Z,12.18
2019-03-11T05:09:38.310Z,12.23
2019-03-11T05:12:10.337Z,12.25
2019-03-11T05:14:42.330Z,12.25
2019-03-11T05:17:14.750Z,12.31
2019-03-11T05:19:46.737Z,12.26
2019-03-11T05:22:19.114Z,12.36
2019-03-11T05:24:51.198Z,12.44
2019-03-11T05:27:23.225Z,12.37
2019-03-11T05:29:55.309Z,12.46
2019-03-11T05:32:27.374Z,12.59
2019-03-11T05:34:59.853Z,12.49
2019-03-11T05:37:31.876Z,12.54
2019-03-11T05:40:04.143Z,12.65
2019-03-11T05:42:36.203Z,12.63
2019-03-11T05:45:09.868Z,12.65
2019-03-11T05:47:42.231Z,12.85
2019-03-11T05:50:15.036Z,12.75
2019-03-11T05:52:47.154Z,12.85
2019-03-11T05:55:19.476Z,12.88
2019-03-11T05:57:51.504Z,12.81
2019-03-11T06:00:26.843Z,12.94
2019-03-11T06:02:58.918Z,13.24
2019-03-11T06:05:31.031Z,13.10
2019-03-11T06:08:03.119Z,13.22
2019-03-11T06:10:35.130Z,12.92
2019-03-11T06:13:07.218Z,12.97
2019-03-11T06:15:39.264Z,12.78
2019-03-11T06:18:11.241Z,12.62
2019-03-11T06:20:48.330Z,12.56
2019-03-11T06:23:20.674Z,12.66
2019-03-11T06:25:52.712Z,12.67
2019-03-11T06:28:25.992Z,12.68
2019-03-11T06:30:58.023Z,12.71
2019-03-11T06:33:30.003Z,12.87
2019-03-11T06:36:02.027Z,12.94
2019-03-11T06:38:34.294Z,12.86
2019-03-11T06:41:06.315Z,12.88
2019-03-11T06:43:39.346Z,12.84
2019-03-11T06:46:11.412Z,12.86
2019-03-11T06:48:43.784Z,12.95
2019-03-11T06:51:15.892Z,12.93
2019-03-11T06:53:47.884Z,12.89
2019-03-11T06:56:19.931Z,12.92
2019-03-11T06:58:51.969Z,13.14
2019-03-11T07:01:23.957Z,13.05
2019-03-11T07:03:55.988Z,13.02
2019-03-11T07:06:27.974Z,13.19
2019-03-11T07:08:59.999Z,13.12
2019-03-11T07:11:32.500Z,13.23
2019-03-11T07:14:04.646Z,13.26
2019-03-11T07:16:36.629Z,13.15
2019-03-11T07:19:09.054Z,13.40
2019-03-11T07:21:41.038Z,13.03
2019-03-11T07:24:13.076Z,13.14
2019-03-11T07:26:45.071Z,13.11
2019-03-11T07:29:17.136Z,12.97
2019-03-11T07:31:49.227Z,12.91
2019-03-11T07:34:21.248Z,12.85
2019-03-11T07:36:53.230Z,12.82
2019-03-11T07:39:25.338Z,13.15
2019-03-11T07:41:57.370Z,13.11
2019-03-11T07:44:29.394Z,13.32
2019-03-11T07:47:01.514Z,13.01
2019-03-11T07:49:33.526Z,13.04
2019-03-11T07:52:05.729Z,12.99
2019-03-11T07:54:37.786Z,13.22
2019-03-11T07:57:11.027Z,13.81
2019-03-11T07:59:43.418Z,13.81
2019-03-11T08:02:15.455Z,13.68
2019-03-11T08:04:47.761Z,13.60
2019-03-11T08:07:19.939Z,13.73
2019-03-11T08:09:51.942Z,13.70
2019-03-11T08:12:24.433Z,13.76
2019-03-11T08:14:56.498Z,13.97
2019-03-11T08:17:28.501Z,13.97
2019-03-11T08:20:02.062Z,14.18
2019-03-11T08:22:35.050Z,14.31
2019-03-11T08:25:07.873Z,14.42
2019-03-11T08:27:40.791Z,15.47
2019-03-11T08:30:13.658Z,17.53
2019-03-11T08:32:45.688Z,18.95
2019-03-11T08:35:17.896Z,20.45
2019-03-11T08:37:49.905Z,22.27
2019-03-11T08:40:22.306Z,21.98
2019-03-11T08:42:54.438Z,23.03
2019-03-11T08:45:25.742Z,24.77
2019-03-11T08:47:57.098Z,26.39
2019-03-11T08:50:28.477Z,27.31
2019-03-11T08:52:59.805Z,26.54
2019-03-11T08:55:31.367Z,26.33
2019-03-11T08:58:02.790Z,26.43
2019-03-11T09:00:34.237Z,25.95
2019-03-11T09:03:05.780Z,27.20
2019-03-11T09:05:37.172Z,26.11
2019-03-11T09:08:08.515Z,25.55
2019-03-11T09:10:39.891Z,27.87
2019-03-11T09:13:12.448Z,27.18
2019-03-11T09:15:43.815Z,26.95
2019-03-11T09:18:15.639Z,27.27
2019-03-11T09:20:47.105Z,27.81
2019-03-11T09:23:18.491Z,30.12
2019-03-11T09:25:49.783Z,28.90
2019-03-11T09:28:21.291Z,29.90
2019-03-11T09:30:52.657Z,30.67
2019-03-11T09:33:24.042Z,29.70
2019-03-11T09:35:55.518Z,29.90
2019-03-11T09:38:26.916Z,29.54
2019-03-11T09:40:58.376Z,30.35
2019-03-11T09:43:29.731Z,30.33
2019-03-11T09:46:01.145Z,30.36
2019-03-11T09:48:32.512Z,31.99
2019-03-11T09:51:04.118Z,31.95
2019-03-11T09:53:35.504Z,32.09
2019-03-11T09:56:09.511Z,31.96
2019-03-11T09:58:39.891Z,31.31
2019-03-11T10:01:11.975Z,32.02
2019-03-11T10:03:43.355Z,31.21
2019-03-11T10:06:14.674Z,30.38
2019-03-11T10:08:46.020Z,32.60
2019-03-11T10:11:17.391Z,33.58
2019-03-11T10:13:48.721Z,33.41
2019-03-11T10:16:20.110Z,32.75
2019-03-11T10:18:51.504Z,33.96
2019-03-11T10:21:23.216Z,31.92
2019-03-11T10:23:54.598Z,32.21
2019-03-11T10:26:26.980Z,32.53
2019-03-11T10:28:58.387Z,31.13
2019-03-11T10:31:29.762Z,32.50
2019-03-11T10:34:01.128Z,32.04
2019-03-11T10:36:32.512Z,32.18
2019-03-11T10:39:05.784Z,31.72
2019-03-11T10:41:37.514Z,30.87
2019-03-11T10:44:08.834Z,32.45
2019-03-11T10:46:40.203Z,32.06
2019-03-11T10:49:12.621Z,32.56
2019-03-11T10:51:44.190Z,33.28
2019-03-11T10:54:15.565Z,34.43
2019-03-11T10:56:46.974Z,33.63
2019-03-11T10:59:18.357Z,34.34
2019-03-11T11:01:49.808Z,33.87
2019-03-11T11:04:21.222Z,34.41
2019-03-11T11:06:52.614Z,34.28
2019-03-11T11:09:24.119Z,34.38
2019-03-11T11:11:55.915Z,35.08
2019-03-11T11:14:28.535Z,33.30
2019-03-11T11:16:59.907Z,35.05
2019-03-11T11:19:31.340Z,34.41
2019-03-11T11:22:02.852Z,34.32
2019-03-11T11:24:35.566Z,34.65
2019-03-11T11:27:08.655Z,35.76
2019-03-11T11:29:40.033Z,35.85
2019-03-11T11:32:11.501Z,35.25
2019-03-11T11:34:42.910Z,35.10
2019-03-11T11:37:14.276Z,35.09
2019-03-11T11:39:45.680Z,32.72
2019-03-11T11:42:17.184Z,32.09
2019-03-11T11:44:48.712Z,30.79
2019-03-11T11:47:20.183Z,32.04
2019-03-11T11:49:51.571Z,30.70
2019-03-11T11:52:22.979Z,30.83
2019-03-11T11:54:55.353Z,31.01
2019-03-11T11:57:26.806Z,31.04
2019-03-11T11:59:58.206Z,31.85
2019-03-11T12:02:29.715Z,31.27
2019-03-11T12:05:01.072Z,31.11
2019-03-11T12:07:32.469Z,33.25
2019-03-11T12:10:03.984Z,33.10
2019-03-11T12:12:35.311Z,31.39
2019-03-11T12:15:07.588Z,31.97
2019-03-11T12:17:39.203Z,31.44
2019-03-11T12:20:12.848Z,31.35
2019-03-11T12:22:44.233Z,31.46
2019-03-11T12:25:16.835Z,31.28
2019-03-11T12:27:53.540Z,32.99
2019-03-11T12:30:23.292Z,33.64
2019-03-11T12:32:54.651Z,33.32
2019-03-11T12:35:26.442Z,32.89
2019-03-11T12:37:58.082Z,32.10
2019-03-11T12:40:30.155Z,32.53
2019-03-11T12:43:01.940Z,30.59
2019-03-11T12:45:33.289Z,29.55
2019-03-11T12:48:04.753Z,27.91
2019-03-11T12:50:36.094Z,26.77
2019-03-11T12:53:07.457Z,24.96
2019-03-11T12:55:38.786Z,24.21
2019-03-11T12:58:10.204Z,24.36
2019-03-11T13:00:41.585Z,24.52
2019-03-11T13:03:13.040Z,24.47
2019-03-11T13:05:44.406Z,23.96
2019-03-11T13:08:17.358Z,23.40
2019-03-11T13:10:48.789Z,23.51
2019-03-11T13:13:20.204Z,23.25
2019-03-11T13:15:51.702Z,23.05
2019-03-11T13:18:40.691Z,23.13
2019-03-11T13:21:15.748Z,22.95
2019-03-11T13:23:47.230Z,22.85
2019-03-11T13:26:18.657Z,22.98
2019-03-11T13:28:50.057Z,22.66
2019-03-11T13:31:22.532Z,22.88
2019-03-11T13:33:53.951Z,23.19
2019-03-11T13:36:25.512Z,23.15
2019-03-11T13:38:57.353Z,23.20
2019-03-11T13:41:28.965Z,23.26
2019-03-11T13:44:00.368Z,23.09
2019-03-11T13:46:31.863Z,23.38
2019-03-11T13:49:03.372Z,22.97
2019-03-11T13:51:34.903Z,22.90
2019-03-11T13:54:07.093Z,22.68
2019-03-11T13:56:38.593Z,23.01
2019-03-11T13:59:09.985Z,23.26
2019-03-11T14:01:41.800Z,23.23
2019-03-11T14:04:13.244Z,23.00
2019-03-11T14:06:44.751Z,23.12
2019-03-11T14:09:16.185Z,23.10
2019-03-11T14:11:47.584Z,22.85
2019-03-11T14:14:19.196Z,22.93
2019-03-11T14:16:50.615Z,22.99
2019-03-11T14:19:22.052Z,23.30
2019-03-11T14:21:55.363Z,23.17
2019-03-11T14:24:26.599Z,23.46
2019-03-11T14:26:58.020Z,23.33
2019-03-11T14:29:29.401Z,23.19
2019-03-11T14:32:00.881Z,23.16
2019-03-11T14:34:32.277Z,23.08
2019-03-11T14:37:03.802Z,23.23
2019-03-11T14:39:35.611Z,23.39
2019-03-11T14:42:07.054Z,23.40
2019-03-11T14:44:38.569Z,23.12
2019-03-11T14:47:10.019Z,23.24
2019-03-11T14:49:41.563Z,23.16
2019-03-11T14:52:12.996Z,22.97
2019-03-11T14:54:44.389Z,22.88
2019-03-11T14:57:15.827Z,22.78
2019-03-11T14:59:47.254Z,22.72
2019-03-11T15:02:18.757Z,22.85
2019-03-11T15:04:51.351Z,22.66
2019-03-11T15:07:23.486Z,22.90
2019-03-11T15:09:54.996Z,22.85
2019-03-11T15:12:26.426Z,23.00
2019-03-11T15:14:57.931Z,22.68
2019-03-11T15:17:29.338Z,22.79
2019-03-11T15:20:00.851Z,23.00
2019-03-11T15:22:32.282Z,23.09
2019-03-11T15:25:03.771Z,22.90
2019-03-11T15:27:35.197Z,23.01
2019-03-11T15:30:07.792Z,22.97
2019-03-11T15:32:39.716Z,23.06
2019-03-11T15:35:11.596Z,23.00
2019-03-11T15:37:43.040Z,22.96
2019-03-11T15:40:14.590Z,23.12
2019-03-11T15:42:46.305Z,23.01
2019-03-11T15:45:18.319Z,22.96
2019-03-11T15:47:49.817Z,22.96
2019-03-11T15:50:23.668Z,22.73
2019-03-11T15:52:55.118Z,22.65
2019-03-11T15:55:26.523Z,22.54
2019-03-11T15:57:57.972Z,22.42
2019-03-11T16:00:29.706Z,22.29
2019-03-11T16:03:01.151Z,22.17
2019-03-11T16:05:32.553Z,22.10
2019-03-11T16:08:03.989Z,22.11
2019-03-11T16:10:35.398Z,22.02
2019-03-11T16:13:06.860Z,22.14
2019-03-11T16:15:38.703Z,21.95
2019-03-11T16:18:10.155Z,21.76
2019-03-11T16:20:41.653Z,21.70
2019-03-11T16:23:13.097Z,21.61
2019-03-11T16:25:44.607Z,21.55
2019-03-11T16:28:16.056Z,21.62
2019-03-11T16:30:47.873Z,21.73
2019-03-11T16:33:19.322Z,21.40
2019-03-11T16:35:50.766Z,21.42
2019-03-11T16:38:22.206Z,21.35
2019-03-11T16:40:53.627Z,21.30
2019-03-11T16:43:25.086Z,21.22
2019-03-11T16:45:56.634Z,21.24
2019-03-11T16:48:28.045Z,21.06
2019-03-11T16:51:00.491Z,21.21
2019-03-11T16:53:31.940Z,20.77
2019-03-11T16:56:03.445Z,20.48
2019-03-11T16:58:35.130Z,20.27
2019-03-11T17:01:09.569Z,20.24
2019-03-11T17:03:41.056Z,20.28
2019-03-11T17:06:12.839Z,20.31
2019-03-11T17:08:44.395Z,20.39
2019-03-11T17:11:15.799Z,20.35
2019-03-11T17:13:47.235Z,20.26
2019-03-11T17:16:18.631Z,19.93
2019-03-11T17:18:50.063Z,19.75
2019-03-11T17:21:21.516Z,19.65
2019-03-11T17:23:53.080Z,19.65
2019-03-11T17:26:24.743Z,19.59
2019-03-11T17:28:57.379Z,19.49
2019-03-11T17:31:28.827Z,19.43
2019-03-11T17:34:00.238Z,19.07
2019-03-11T17:36:32.796Z,19.32
2019-03-11T17:39:05.426Z,19.12
2019-03-11T17:41:52.542Z,19.02
2019-03-11T17:44:27.862Z,18.73
2019-03-11T17:47:07.362Z,18.52
2019-03-11T17:49:52.947Z,18.38
2019-03-11T17:52:29.192Z,18.44
2019-03-11T17:55:02.559Z,18.40
2019-03-11T17:57:37.411Z,18.17
2019-03-11T18:00:37.896Z,18.00
2019-03-11T18:03:13.419Z,17.87
2019-03-11T18:05:46.256Z,18.00
2019-03-11T18:08:18.011Z,17.89
2019-03-11T18:10:50.004Z,17.60
2019-03-11T18:13:21.607Z,17.72
2019-03-11T18:15:53.216Z,17.58
2019-03-11T18:18:32.714Z,17.33
2019-03-11T18:20:59.721Z,17.21
2019-03-11T18:23:32.775Z,17.06
2019-03-11T18:26:04.340Z,16.83
2019-03-11T18:28:35.904Z,16.81
2019-03-11T18:31:07.571Z,16.85
2019-03-11T18:33:39.747Z,16.82
2019-03-11T18:36:11.271Z,16.51
2019-03-11T18:38:42.709Z,16.44
2019-03-11T18:41:14.966Z,16.64
2019-03-11T18:43:46.448Z,16.37
2019-03-11T18:46:18.221Z,16.32
2019-03-11T18:48:50.141Z,16.48
2019-03-11T18:51:21.794Z,16.29
2019-03-11T18:53:53.261Z,16.17
2019-03-11T18:56:24.810Z,16.23
2019-03-11T18:58:56.697Z,16.14
2019-03-11T19:01:30.901Z,15.83
2019-03-11T19:04:02.560Z,15.72
2019-03-11T19:06:34.146Z,15.64
2019-03-11T19:09:08.174Z,15.75
2019-03-11T19:11:40.642Z,15.57
2019-03-11T19:14:16.730Z,15.49
2019-03-11T19:16:48.496Z,15.34
2019-03-11T19:19:22.440Z,15.29
2019-03-11T19:21:54.790Z,15.15
2019-03-11T19:24:26.622Z,15.00
2019-03-11T19:26:58.199Z,14.94
2019-03-11T19:29:29.757Z,15.15
2019-03-11T19:32:05.088Z,14.90
2019-03-11T19:34:36.721Z,15.19
2019-03-11T19:37:09.695Z,14.85
2019-03-11T19:39:41.180Z,14.80
2019-03-11T19:42:32.576Z,14.77
2019-03-11T19:45:04.112Z,14.79
2019-03-11T19:47:37.090Z,14.80
2019-03-11T19:50:09.755Z,14.91
2019-03-11T19:52:41.496Z,14.67
2019-03-11T19:55:13.576Z,14.86
2019-03-11T19:57:45.752Z,14.78
2019-03-11T20:00:19.083Z,14.79
2019-03-11T20:02:50.928Z,14.59
2019-03-11T20:05:23.751Z,14.56
2019-03-11T20:07:56.128Z,14.49
2019-03-11T20:10:28.071Z,14.55
2019-03-11T20:13:00.820Z,14.52
2019-03-11T20:15:33.549Z,14.19
2019-03-11T20:18:06.083Z,14.24
2019-03-11T20:20:37.763Z,14.32
2019-03-11T20:23:09.594Z,14.22
2019-03-11T20:25:41.439Z,14.08
2019-03-11T20:28:13.159Z,13.77
2019-03-11T20:30:45.647Z,13.59
2019-03-11T20:33:17.499Z,13.60
2019-03-11T20:35:49.424Z,13.56
2019-03-11T20:38:21.241Z,13.46
2019-03-11T20:40:53.123Z,13.47
2019-03-11T20:43:24.676Z,13.55
2019-03-11T20:45:58.306Z,13.51
2019-03-11T20:48:31.830Z,13.61
2019-03-11T20:51:05.092Z,13.68
2019-03-11T20:53:37.114Z,13.36
2019-03-11T20:56:08.814Z,13.42
2019-03-11T20:58:40.918Z,13.58
2019-03-11T21:01:12.615Z,13.43
2019-03-11T21:03:45.135Z,13.34
2019-03-11T21:06:16.815Z,13.02
2019-03-11T21:08:48.521Z,12.89
2019-03-11T21:11:20.403Z,12.86
2019-03-11T21:13:52.414Z,12.93
2019-03-11T21:16:24.002Z,12.82
2019-03-11T21:18:57.488Z,12.74
2019-03-11T21:21:29.383Z,12.71
2019-03-11T21:24:02.191Z,12.69
2019-03-11T21:26:34.155Z,12.67
2019-03-11T21:29:05.699Z,12.83
2019-03-11T21:31:38.435Z,12.89
2019-03-11T21:34:11.580Z,12.65
2019-03-11T21:36:43.364Z,12.75
2019-03-11T21:39:15.047Z,12.43
2019-03-11T21:41:46.673Z,12.62
2019-03-11T21:44:18.245Z,12.43
2019-03-11T21:46:49.768Z,12.54
2019-03-11T21:49:21.424Z,12.30
2019-03-11T21:51:52.983Z,12.18
2019-03-11T21:54:24.917Z,12.17
2019-03-11T21:56:56.433Z,12.13
2019-03-11T21:59:28.815Z,12.32
2019-03-11T22:02:00.712Z,12.01
2019-03-11T22:04:32.273Z,12.10
2019-03-11T22:07:03.788Z,11.92
2019-03-11T22:09:35.346Z,11.56
2019-03-11T22:12:10.307Z,11.49
2019-03-11T22:14:40.694Z,11.32
2019-03-11T22:17:12.736Z,11.37
2019-03-11T22:19:45.241Z,11.25
2019-03-11T22:22:16.714Z,11.13
2019-03-11T22:24:48.222Z,11.03
2019-03-11T22:27:19.732Z,11.30
2019-03-11T22:29:51.203Z,11.53
2019-03-11T22:32:22.760Z,11.65
2019-03-11T22:34:54.382Z,11.68
2019-03-11T22:37:25.956Z,11.72
2019-03-11T22:39:57.497Z,11.68
2019-03-11T22:42:28.974Z,11.51
2019-03-11T22:45:00.520Z,11.44
2019-03-11T22:47:32.130Z,11.46
2019-03-11T22:50:03.599Z,11.15
2019-03-11T22:52:35.132Z,11.11
2019-03-11T22:55:07.730Z,11.15
2019-03-11T22:57:39.301Z,11.18
2019-03-11T23:00:18.005Z,11.16
2019-03-11T23:02:51.672Z,11.18
2019-03-11T23:05:23.257Z,11.08
2019-03-11T23:07:54.767Z,11.08
2019-03-11T23:10:26.237Z,11.12
2019-03-11T23:12:57.713Z,11.14
2019-03-11T23:15:29.269Z,11.03
2019-03-11T23:18:00.703Z,11.01
2019-03-11T23:20:33.687Z,11.01
2019-03-11T23:23:05.225Z,10.86
2019-03-11T23:25:36.876Z,10.88
2019-03-11T23:28:08.348Z,10.79
2019-03-11T23:30:39.816Z,10.64
2019-03-11T23:33:11.323Z,10.72
2019-03-11T23:35:43.293Z,10.66
2019-03-11T23:38:14.738Z,10.69
2019-03-11T23:40:46.136Z,10.71
2019-03-11T23:43:17.607Z,10.68
2019-03-11T23:45:49.111Z,10.68
2019-03-11T23:48:20.605Z,10.68
2019-03-11T23:50:52.033Z,10.57
2019-03-11T23:53:23.481Z,10.58
2019-03-11T23:55:55.112Z,10.63
2019-03-11T23:58:26.985Z,10.68
